Time;durP1;ratioP1;P1;durP2;ratioP2;P2;SDS_P1;SDS_P2;PMS_P1;PMS_P2;Temp;Humidity;BMP_temperature;BMP_pressure;BME280_temperature;BME280_humidity;BME280_pressure;Samples;Min_cycle;Max_cycle;Signal;HPM_P1;HPM_P2
2023/03/10 00:01:21;;;;;;;4.07;3.23;;;;;;;2.98;100.00;94677.50;4989390;28;105517;-66
2023/03/10 00:03:49;;;;;;;5.63;3.40;;;;;;;3.06;100.00;94673.63;4994201;28;101862;-65
2023/03/10 00:06:18;;;;;;;4.93;3.40;;;;;;;2.95;100.00;94670.09;4991308;28;102488;-65
2023/03/10 00:08:45;;;;;;;4.70;2.87;;;;;;;2.88;100.00;94660.81;4990607;28;101972;-65
2023/03/10 00:11:13;;;;;;;4.17;2.90;;;;;;;2.94;100.00;94662.44;4990569;28;105377;-65
2023/03/10 00:13:40;;;;;;;4.07;3.10;;;;;;;2.89;100.00;94654.53;4989966;28;105460;-65
2023/03/10 00:16:08;;;;;;;2.83;2.53;;;;;;;2.81;100.00;94655.75;4990163;28;101819;-65
2023/03/10 00:18:35;;;;;;;3.97;3.10;;;;;;;2.72;100.00;94648.53;4990320;28;105490;-65
2023/03/10 00:21:02;;;;;;;3.50;2.90;;;;;;;2.66;100.00;94649.50;4989835;28;105616;-65
2023/03/10 00:23:30;;;;;;;7.20;3.47;;;;;;;2.78;100.00;94644.97;4990399;28;101974;-65
2023/03/10 00:25:59;;;;;;;4.50;3.60;;;;;;;2.56;100.00;94642.31;4993102;28;104814;-65
2023/03/10 00:28:27;;;;;;;3.70;3.40;;;;;;;2.68;100.00;94644.84;4990301;28;101717;-66
2023/03/10 00:31:00;;;;;;;6.37;3.67;;;;;;;2.68;100.00;94639.59;4990019;28;105468;-66
2023/03/10 00:33:29;;;;;;;4.60;3.67;;;;;;;2.62;100.00;94640.56;4989560;28;105475;-65
2023/03/10 00:36:06;;;;;;;5.70;3.40;;;;;;;2.67;100.00;94638.78;4990244;28;101807;-65
2023/03/10 00:38:35;;;;;;;4.73;3.50;;;;;;;2.73;100.00;94629.16;4991551;28;102482;-66
2023/03/10 00:41:03;;;;;;;5.97;3.13;;;;;;;2.61;100.00;94637.13;4988400;28;104013;-66
2023/03/10 00:43:31;;;;;;;4.17;3.47;;;;;;;2.76;100.00;94628.66;4990152;28;101878;-66
2023/03/10 00:45:57;;;;;;;4.20;3.27;;;;;;;2.80;100.00;94629.75;4991555;28;102565;-65
2023/03/10 00:48:25;;;;;;;5.73;3.57;;;;;;;2.66;100.00;94616.22;4992799;28;105857;-65
2023/03/10 00:50:52;;;;;;;3.90;3.10;;;;;;;2.74;100.00;94607.13;4989852;28;104916;-66
2023/03/10 00:53:20;;;;;;;4.27;3.03;;;;;;;2.80;100.00;94603.50;4989223;28;105279;-65
2023/03/10 00:55:59;;;;;;;3.37;3.03;;;;;;;2.82;100.00;94598.81;4989625;28;101871;-66
2023/03/10 00:58:27;;;;;;;3.53;2.83;;;;;;;2.71;100.00;94590.03;4991434;28;102526;-66
2023/03/10 01:00:54;;;;;;;2.87;2.63;;;;;;;2.58;100.00;94585.13;4989161;28;105492;-66
2023/03/10 01:03:23;;;;;;;3.00;2.70;;;;;;;2.46;100.00;94581.84;4990852;28;101874;-66
2023/03/10 01:05:51;;;;;;;6.67;2.77;;;;;;;2.33;100.00;94581.41;4991431;28;102267;-65
2023/03/10 01:08:18;;;;;;;5.30;2.20;;;;;;;2.29;100.00;94572.47;4992541;28;105317;-65
2023/03/10 01:10:46;;;;;;;2.80;2.30;;;;;;;2.28;100.00;94566.44;4989568;28;105597;-66
2023/03/10 01:13:17;;;;;;;3.30;2.60;;;;;;;2.22;100.00;94559.53;4988921;28;105608;-66
2023/03/10 01:15:46;;;;;;;3.77;2.40;;;;;;;2.04;100.00;94565.06;4989440;28;101796;-66
2023/03/10 01:18:14;;;;;;;2.90;2.40;;;;;;;1.88;100.00;94552.78;4990806;28;102561;-65
2023/03/10 01:20:41;;;;;;;4.47;2.40;;;;;;;2.12;100.00;94553.34;4988969;28;105225;-65
2023/03/10 01:23:14;;;;;;;2.50;2.30;;;;;;;2.23;100.00;94555.06;4989297;28;101956;-65
2023/03/10 01:25:41;;;;;;;4.67;2.57;;;;;;;2.19;100.00;94543.50;4989152;28;105135;-65
2023/03/10 01:28:08;;;;;;;4.97;2.87;;;;;;;2.34;100.00;94538.41;4988789;28;105481;-65
2023/03/10 01:30:39;;;;;;;3.93;2.70;;;;;;;2.39;100.00;94528.78;4992873;28;101960;-65
2023/03/10 01:33:06;;;;;;;4.60;2.80;;;;;;;2.24;100.00;94522.59;4988541;28;105021;-66
2023/03/10 01:35:33;;;;;;;3.90;2.57;;;;;;;2.27;100.00;94516.84;4989096;28;101769;-65
2023/03/10 01:38:00;;;;;;;3.27;2.30;;;;;;;2.28;100.00;94513.97;4989172;28;104792;-65
2023/03/10 01:40:27;;;;;;;4.07;2.33;;;;;;;1.96;100.00;94504.38;4988641;28;105319;-65
2023/03/10 01:43:17;;;;;;;4.00;2.40;;;;;;;1.93;100.00;94504.88;4988829;28;102323;-65
2023/03/10 01:46:24;;;;;;;3.07;2.27;;;;;;;1.94;100.00;94499.41;4989133;28;104803;-65
2023/03/10 01:48:54;;;;;;;3.63;2.23;;;;;;;1.91;100.00;94493.88;4988538;28;106002;-65
2023/03/10 01:51:21;;;;;;;3.30;2.20;;;;;;;1.89;100.00;94491.50;4988093;28;101846;-66
2023/03/10 01:53:48;;;;;;;4.53;2.47;;;;;;;1.86;100.00;94488.56;4991493;28;105003;-66
2023/03/10 01:56:17;;;;;;;3.80;2.10;;;;;;;1.88;100.00;94470.75;4988838;28;102131;-66
2023/03/10 01:58:46;;;;;;;2.33;2.10;;;;;;;1.90;100.00;94473.91;4988996;28;104874;-66
2023/03/10 02:01:15;;;;;;;1.80;1.70;;;;;;;1.87;100.00;94469.19;4987635;28;105001;-66
2023/03/10 02:03:48;;;;;;;2.53;2.13;;;;;;;1.83;100.00;94470.69;4989056;28;101710;-66
2023/03/10 02:06:20;;;;;;;2.10;1.93;;;;;;;1.68;100.00;94460.81;4990335;28;102469;-66
2023/03/10 02:08:51;;;;;;;3.97;1.93;;;;;;;1.75;100.00;94453.56;4989700;28;102486;-66
2023/03/10 02:11:19;;;;;;;3.87;2.23;;;;;;;1.59;100.00;94445.75;4988907;28;101773;-66
2023/03/10 02:13:46;;;;;;;1.90;1.80;;;;;;;1.57;100.00;94440.75;4988751;28;104081;-66
2023/03/10 02:16:14;;;;;;;3.03;2.10;;;;;;;1.75;100.00;94424.75;4991333;28;105056;-66
2023/03/10 02:18:44;;;;;;;3.53;2.10;;;;;;;1.76;100.00;94417.69;4990039;28;102497;-66
2023/03/10 02:21:20;;;;;;;3.87;1.97;;;;;;;1.50;100.00;94408.72;4987986;28;105836;-66
2023/03/10 02:23:54;;;;;;;3.27;2.13;;;;;;;1.65;100.00;94405.50;4988562;28;101890;-66
2023/03/10 02:26:29;;;;;;;2.43;2.00;;;;;;;1.77;100.00;94406.16;4990410;28;102349;-65
2023/03/10 02:29:00;;;;;;;3.70;1.97;;;;;;;1.68;100.00;94405.00;4988125;28;105774;-66
2023/03/10 02:31:28;;;;;;;3.60;2.20;;;;;;;1.55;100.00;94400.13;4989892;28;101742;-65
2023/03/10 02:33:56;;;;;;;1.77;1.67;;;;;;;1.44;100.00;94404.47;4988622;28;105241;-66
2023/03/10 02:36:24;;;;;;;3.50;2.30;;;;;;;1.57;100.00;94396.25;4987720;28;105577;-65
2023/03/10 02:38:52;;;;;;;2.60;1.77;;;;;;;1.44;100.00;94383.50;4991872;28;101921;-66
2023/03/10 02:41:22;;;;;;;3.23;2.17;;;;;;;1.60;100.00;94387.09;4987395;28;105504;-65
2023/03/10 02:43:50;;;;;;;2.57;2.17;;;;;;;1.65;100.00;94381.94;4988598;28;102033;-66
2023/03/10 02:46:26;;;;;;;3.23;2.50;;;;;;;1.70;100.00;94372.28;4988233;28;104948;-66
2023/03/10 02:48:53;;;;;;;2.10;1.83;;;;;;;1.62;100.00;94369.31;4987850;28;105500;-66
2023/03/10 02:51:30;;;;;;;2.73;2.30;;;;;;;1.56;100.00;94371.09;4988145;28;101791;-66
2023/03/10 02:54:01;;;;;;;2.40;2.20;;;;;;;1.64;100.00;94377.72;4988388;28;105466;-66
2023/03/10 02:56:29;;;;;;;2.60;2.20;;;;;;;1.45;100.00;94379.06;4987316;28;105091;-65
2023/03/10 02:58:58;;;;;;;4.77;2.40;;;;;;;1.63;100.00;94370.88;4988231;28;101941;-66
2023/03/10 03:01:29;;;;;;;2.13;1.93;;;;;;;1.63;100.00;94366.44;4990346;28;104813;-66
2023/03/10 03:03:56;;;;;;;3.80;2.47;;;;;;;1.74;100.00;94356.88;4990277;28;101893;-66
2023/03/10 03:06:23;;;;;;;2.00;1.80;;;;;;;1.82;100.00;94348.59;4991278;28;105616;-66
2023/03/10 03:08:50;;;;;;;3.30;2.03;;;;;;;1.89;100.00;94339.50;4990928;28;106206;-66
2023/03/10 03:11:19;;;;;;;2.73;2.30;;;;;;;1.84;100.00;94336.03;4991650;28;102105;-66
2023/03/10 03:13:47;;;;;;;3.63;2.43;;;;;;;1.88;100.00;94337.13;4991578;28;105370;-66
2023/03/10 03:16:14;;;;;;;3.40;2.13;;;;;;;1.82;100.00;94332.88;4992185;28;102621;-66
2023/03/10 03:18:44;;;;;;;4.50;2.23;;;;;;;1.76;100.00;94328.63;4991347;28;101865;-66
2023/03/10 03:21:16;;;;;;;3.83;2.50;;;;;;;1.84;100.00;94330.78;4995407;28;102294;-65
2023/03/10 03:23:45;;;;;;;2.67;2.10;;;;;;;1.82;100.00;94320.56;4991343;28;101711;-65
2023/03/10 03:26:17;;;;;;;2.37;1.87;;;;;;;1.79;100.00;94317.63;4991364;28;105739;-66
2023/03/10 03:28:45;;;;;;;4.23;2.30;;;;;;;1.79;100.00;94317.63;4990684;28;105732;-65
2023/03/10 03:31:15;;;;;;;3.10;2.27;;;;;;;1.64;100.00;94323.50;4990970;28;102143;-65
2023/03/10 03:33:44;;;;;;;4.60;2.13;;;;;;;1.74;100.00;94315.75;4991132;28;104403;-66
2023/03/10 03:36:12;;;;;;;4.77;2.00;;;;;;;1.76;100.00;94311.06;4992152;28;103108;-66
2023/03/10 03:38:40;;;;;;;4.50;2.30;;;;;;;1.70;100.00;94303.41;4991127;28;102107;-66
2023/03/10 03:41:07;;;;;;;3.00;2.20;;;;;;;1.66;100.00;94299.69;4990973;28;105298;-66
2023/03/10 03:43:37;;;;;;;3.07;2.70;;;;;;;1.66;100.00;94292.63;4993553;28;105542;-66
2023/03/10 03:46:04;;;;;;;2.87;2.37;;;;;;;1.71;100.00;94284.03;4991238;28;105031;-66
2023/03/10 03:48:33;;;;;;;3.87;2.80;;;;;;;1.61;100.00;94282.09;4990233;28;105294;-66
2023/03/10 03:51:03;;;;;;;3.60;2.43;;;;;;;1.91;100.00;94284.22;4990884;28;102284;-66
2023/03/10 03:53:36;;;;;;;3.80;2.60;;;;;;;2.04;100.00;94302.97;4992559;28;102273;-66
2023/03/10 03:56:04;;;;;;;2.90;2.60;;;;;;;1.86;100.00;94310.38;4990277;28;105205;-65
2023/03/10 03:58:34;;;;;;;3.87;2.50;;;;;;;2.12;100.00;94318.22;4990929;28;101805;-65
2023/03/10 04:01:01;;;;;;;5.30;3.00;;;;;;;2.36;100.00;94316.84;4990880;28;104769;-65
2023/03/10 04:03:31;;;;;;;6.47;2.97;;;;;;;2.67;100.00;94321.31;4990172;28;105284;-65
2023/03/10 04:05:59;;;;;;;3.63;2.53;;;;;;;2.87;100.00;94337.19;4994002;28;102071;-65
2023/03/10 04:08:27;;;;;;;3.80;2.40;;;;;;;2.92;100.00;94339.06;4990115;28;105554;-65
2023/03/10 04:10:56;;;;;;;3.07;2.40;;;;;;;2.93;100.00;94338.00;4991960;28;102084;-65
2023/03/10 04:13:26;;;;;;;3.50;2.50;;;;;;;3.00;100.00;94320.22;4990576;28;105194;-65
2023/03/10 04:15:55;;;;;;;3.10;2.63;;;;;;;3.07;100.00;94320.78;4988516;28;105032;-65
2023/03/10 04:18:23;;;;;;;2.83;2.40;;;;;;;3.12;100.00;94307.69;4990428;28;101963;-65
2023/03/10 04:20:50;;;;;;;3.63;2.50;;;;;;;3.20;100.00;94315.06;4990803;28;105196;-65
2023/03/10 04:23:19;;;;;;;3.77;2.60;;;;;;;3.30;100.00;94317.75;4989392;28;103815;-65
2023/03/10 04:25:48;;;;;;;3.27;2.57;;;;;;;3.34;100.00;94332.72;4990442;28;101878;-65
2023/03/10 04:28:16;;;;;;;2.30;2.03;;;;;;;3.34;100.00;94337.22;4993210;28;104874;-65
2023/03/10 04:30:43;;;;;;;3.80;2.87;;;;;;;3.25;100.00;94333.47;4990287;28;101901;-66
2023/03/10 04:33:12;;;;;;;2.77;2.53;;;;;;;3.31;100.00;94337.72;4990235;28;105319;-66
2023/03/10 04:35:41;;;;;;;3.20;2.93;;;;;;;3.41;100.00;94337.75;4989684;28;105506;-66
2023/03/10 04:38:08;;;;;;;3.40;2.60;;;;;;;3.44;100.00;94358.28;4989974;28;102399;-65
2023/03/10 04:40:36;;;;;;;3.47;2.70;;;;;;;3.60;100.00;94359.94;4991454;28;102341;-65
2023/03/10 04:43:08;;;;;;;3.17;2.57;;;;;;;3.91;100.00;94358.97;4989539;28;105336;-65
2023/03/10 04:45:35;;;;;;;3.47;2.50;;;;;;;4.00;100.00;94347.72;4989763;28;101801;-65
2023/03/10 04:48:03;;;;;;;3.43;2.37;;;;;;;4.02;100.00;94355.34;4989810;28;105330;-65
2023/03/10 04:50:30;;;;;;;4.20;2.37;;;;;;;4.13;100.00;94363.00;4992935;28;105496;-65
2023/03/10 04:52:58;;;;;;;2.97;2.27;;;;;;;4.28;100.00;94363.03;4989930;28;105406;-65
2023/03/10 04:55:29;;;;;;;2.90;2.23;;;;;;;4.32;100.00;94355.41;4989421;28;104025;-65
2023/03/10 04:57:57;;;;;;;2.30;2.10;;;;;;;4.21;100.00;94356.44;4989882;28;101886;-65
2023/03/10 05:00:27;;;;;;;4.37;2.27;;;;;;;4.21;100.00;94361.72;4989637;28;104820;-66
2023/03/10 05:02:54;;;;;;;3.90;2.50;;;;;;;4.18;100.00;94354.31;4988778;28;105563;-66
2023/03/10 05:05:22;;;;;;;3.80;2.30;;;;;;;4.05;100.00;94355.59;4989852;28;102060;-65
2023/03/10 05:07:48;;;;;;;3.83;2.37;;;;;;;3.92;100.00;94350.84;4989939;28;104942;-65
2023/03/10 05:10:15;;;;;;;4.57;2.63;;;;;;;3.83;100.00;94360.28;4989036;28;105535;-65
2023/03/10 05:12:42;;;;;;;4.60;2.90;;;;;;;3.76;100.00;94362.34;4993221;28;101822;-65
2023/03/10 05:15:11;;;;;;;4.27;2.77;;;;;;;3.77;100.00;94366.56;4988725;28;105390;-65
2023/03/10 05:17:40;;;;;;;7.20;2.87;;;;;;;3.73;100.00;94398.88;4989232;28;101940;-65
2023/03/10 05:20:08;;;;;;;5.50;2.80;;;;;;;3.68;100.00;94477.69;4989514;28;105410;-65
2023/03/10 05:22:36;;;;;;;4.60;3.03;;;;;;;3.95;100.00;94436.31;4988814;28;105055;-65
2023/03/10 05:25:05;;;;;;;2.70;2.50;;;;;;;4.24;100.00;94432.19;4989263;28;101967;-65
2023/03/10 05:27:32;;;;;;;4.17;2.57;;;;;;;4.27;100.00;94429.84;4989291;28;105524;-65
2023/03/10 05:29:59;;;;;;;3.83;2.30;;;;;;;4.40;100.00;94425.94;4988358;28;105656;-65
2023/03/10 05:32:27;;;;;;;5.73;2.40;;;;;;;4.47;100.00;94416.75;4992815;28;101873;-65
2023/03/10 05:34:55;;;;;;;4.77;2.67;;;;;;;4.50;100.00;94424.13;4988786;28;105738;-65
2023/03/10 05:37:23;;;;;;;1.90;1.70;;;;;;;4.49;100.00;94427.00;4989276;28;101871;-65
2023/03/10 05:39:50;;;;;;;3.03;2.00;;;;;;;4.54;100.00;94427.78;4989442;28;105069;-66
2023/03/10 05:42:20;;;;;;;3.50;2.37;;;;;;;4.56;100.00;94425.72;4988172;28;105325;-65
2023/03/10 05:44:56;;;;;;;3.83;2.20;;;;;;;4.62;100.00;94424.66;4988777;28;102330;-66
2023/03/10 05:47:23;;;;;;;3.20;2.30;;;;;;;4.63;100.00;94418.34;4988829;28;105342;-65
2023/03/10 05:49:50;;;;;;;4.23;2.47;;;;;;;4.60;100.00;94418.88;4988335;28;105530;-65
2023/03/10 05:52:18;;;;;;;3.30;2.57;;;;;;;4.64;100.00;94416.53;4988822;28;101903;-65
2023/03/10 05:54:58;;;;;;;5.37;3.37;;;;;;;4.62;100.00;94429.94;4991939;28;104749;-65
2023/03/10 05:57:25;;;;;;;4.17;2.33;;;;;;;4.61;100.00;94427.56;4989427;28;101797;-65
2023/03/10 05:59:52;;;;;;;3.10;2.53;;;;;;;4.67;100.00;94431.78;4989187;28;104867;-65
2023/03/10 06:02:19;;;;;;;2.90;1.90;;;;;;;4.77;100.00;94431.78;4987860;28;105108;-65
2023/03/10 06:05:03;;;;;;;2.40;2.10;;;;;;;4.78;100.00;94428.91;4990331;28;101858;-65
2023/03/10 06:07:32;;;;;;;4.67;2.57;;;;;;;4.87;100.00;94426.53;4986806;28;102440;-65
2023/03/10 06:10:00;;;;;;;2.67;2.17;;;;;;;4.91;100.00;94435.50;4968661;28;105718;-65
2023/03/10 06:12:27;;;;;;;2.93;2.50;;;;;;;4.89;100.00;94434.97;4969159;28;101929;-65
2023/03/10 06:14:54;;;;;;;3.90;2.83;;;;;;;4.95;100.00;94429.44;4984888;28;105564;-65
2023/03/10 06:17:21;;;;;;;3.07;2.77;;;;;;;4.96;100.00;94430.25;4982131;28;105226;-65
2023/03/10 06:19:47;;;;;;;5.23;2.73;;;;;;;4.87;100.00;94434.44;4990253;28;102341;-65
2023/03/10 06:22:14;;;;;;;3.03;2.43;;;;;;;4.95;100.00;94439.97;4988264;28;105721;-65
2023/03/10 06:24:59;;;;;;;4.90;2.90;;;;;;;4.94;100.00;94443.66;4990003;28;101902;-65
2023/03/10 06:27:25;;;;;;;3.20;2.30;;;;;;;4.86;100.00;94444.16;4990448;28;102348;-66
2023/03/10 06:29:52;;;;;;;2.97;2.40;;;;;;;5.02;100.00;94437.09;4975977;28;105785;-65
2023/03/10 06:32:19;;;;;;;2.40;2.20;;;;;;;5.04;100.00;94437.59;4950882;28;101993;-65
2023/03/10 06:34:46;;;;;;;3.00;2.50;;;;;;;5.18;100.00;94431.53;4958987;28;105495;-65
2023/03/10 06:37:14;;;;;;;2.90;2.03;;;;;;;5.26;100.00;94435.50;4980480;28;103098;-66
2023/03/10 06:39:42;;;;;;;2.57;2.37;;;;;;;5.23;100.00;94425.50;4972283;28;101985;-66
2023/03/10 06:42:23;;;;;;;3.20;2.53;;;;;;;5.33;100.00;94430.75;4951669;28;105329;-66
2023/03/10 06:44:54;;;;;;;4.00;2.53;;;;;;;5.35;100.00;94420.75;4969512;28;101907;-66
2023/03/10 06:47:22;;;;;;;3.40;2.50;;;;;;;5.37;100.00;94423.88;4991466;28;104709;-66
2023/03/10 06:49:49;;;;;;;6.07;3.10;;;;;;;5.47;100.00;94416.78;4983197;28;105301;-65
2023/03/10 06:52:21;;;;;;;3.87;2.77;;;;;;;5.54;100.00;94413.84;4953754;28;101816;-65
2023/03/10 06:55:01;;;;;;;4.47;2.50;;;;;;;5.58;100.00;94413.06;4952122;28;103652;-66
2023/03/10 06:57:30;;;;;;;2.50;2.30;;;;;;;5.69;100.00;94414.63;4953247;28;102591;-65
2023/03/10 06:59:57;;;;;;;3.73;2.17;;;;;;;5.64;100.00;94419.09;4952269;28;101967;-65
2023/03/10 07:02:24;;;;;;;4.50;2.50;;;;;;;5.71;100.00;94406.41;4956171;28;102346;-65
2023/03/10 07:04:53;;;;;;;2.47;2.23;;;;;;;5.79;100.00;94413.81;4953634;28;101902;-65
2023/03/10 07:07:19;;;;;;;2.87;2.40;;;;;;;5.94;100.00;94405.88;4986769;28;103887;-64
2023/03/10 07:09:46;;;;;;;3.53;2.40;;;;;;;6.08;100.00;94405.03;4978747;28;103021;-62
2023/03/10 07:12:13;;;;;;;3.97;2.87;;;;;;;6.21;100.00;94408.94;4971377;28;103110;-64
2023/03/10 07:14:44;;;;;;;3.70;2.83;;;;;;;6.27;100.00;94400.69;4971872;28;105331;-64
2023/03/10 07:17:10;;;;;;;3.10;2.77;;;;;;;6.40;100.00;94404.59;4968088;28;105626;-64
2023/03/10 07:19:37;;;;;;;4.10;3.03;;;;;;;6.55;100.00;94396.59;4971603;28;102246;-64
2023/03/10 07:22:04;;;;;;;6.80;3.67;;;;;;;6.67;100.00;94395.22;4971475;28;104896;-64
2023/03/10 07:24:32;;;;;;;5.17;3.83;;;;;;;6.75;100.00;94386.69;4974015;28;102018;-64
2023/03/10 07:27:00;;;;;;;4.43;3.80;;;;;;;6.87;100.00;94370.50;4971239;28;105633;-65
2023/03/10 07:29:27;;;;;;;6.60;3.37;;;;;;;6.95;100.00;94369.91;4970464;28;105238;-64
2023/03/10 07:31:55;;;;;;;3.10;2.70;;;;;;;7.07;100.00;94365.84;4971344;28;102082;-64
2023/03/10 07:34:45;;;;;;;4.80;3.00;;;;;;;7.19;100.00;94349.63;4971213;28;105085;-64
2023/03/10 07:37:12;;;;;;;3.43;2.77;;;;;;;7.26;100.00;94347.44;4970717;28;105736;-64
2023/03/10 07:39:39;;;;;;;5.20;2.40;;;;;;;7.34;100.00;94346.81;4979298;28;101944;-63
2023/03/10 07:42:06;;;;;;;3.67;2.40;;;;;;;7.42;100.00;94340.94;4972527;28;102885;-63
2023/03/10 07:44:47;;;;;;;4.37;2.27;;;;;;;7.57;100.00;94341.56;4973819;28;105607;-64
2023/03/10 07:47:16;;;;;;;2.77;2.20;;;;;;;7.69;100.00;94333.25;4981271;28;102540;-64
2023/03/10 07:49:45;;;;;;;3.37;2.30;;;;;;;7.72;100.00;94324.72;4966386;28;104500;-64
2023/03/10 07:52:13;;;;;;;3.73;2.50;;;;;;;7.83;100.00;94320.88;4983208;28;101966;-64
2023/03/10 07:54:54;;;;;;;3.53;2.60;;;;;;;7.90;100.00;94318.72;4989170;28;102401;-65
2023/03/10 07:57:21;;;;;;;4.30;3.17;;;;;;;7.96;100.00;94307.75;4970154;28;105368;-64
2023/03/10 07:59:48;;;;;;;6.17;2.70;;;;;;;8.10;100.00;94313.94;4971039;28;101838;-63
2023/03/10 08:02:16;;;;;;;3.60;2.60;;;;;;;8.24;100.00;94309.53;4971513;28;102619;-63
2023/03/10 08:05:05;;;;;;;3.93;2.53;;;;;;;8.43;100.00;94307.69;4971380;28;102473;-63
2023/03/10 08:07:32;;;;;;;3.23;2.40;;;;;;;8.59;100.00;94295.00;4973941;28;101888;-64
2023/03/10 08:09:59;;;;;;;2.50;2.00;;;;;;;8.68;100.00;94291.38;4973121;28;105575;-64
2023/03/10 08:12:26;;;;;;;2.30;1.83;;;;;;;8.83;100.00;94296.47;4991830;28;101791;-64
2023/03/10 08:14:53;;;;;;;4.17;1.93;;;;;;;8.96;100.00;94294.94;4989916;28;105288;-65
2023/03/10 08:17:22;;;;;;;2.03;1.70;;;;;;;9.08;100.00;94292.59;4973647;28;106036;-65
2023/03/10 08:19:49;;;;;;;2.10;1.90;;;;;;;9.10;100.00;94285.94;4961333;28;102079;-64
2023/03/10 08:22:16;;;;;;;6.67;5.37;;;;;;;8.92;100.00;94286.78;4971756;28;102470;-64
2023/03/10 08:24:50;;;;;;;8.30;4.20;;;;;;;8.82;100.00;94281.63;4969339;28;105621;-63
2023/03/10 08:27:18;;;;;;;4.03;3.53;;;;;;;8.56;100.00;94282.34;4969452;28;102026;-63
2023/03/10 08:29:45;;;;;;;7.63;4.23;;;;;;;8.51;100.00;94287.72;4974281;28;102827;-63
2023/03/10 08:32:11;;;;;;;3.07;2.77;;;;;;;8.45;100.00;94289.63;4971628;28;103303;-65
2023/03/10 08:34:49;;;;;;;4.40;2.20;;;;;;;8.47;100.00;94276.13;4971603;28;102930;-65
2023/03/10 08:37:16;;;;;;;3.90;2.20;;;;;;;8.50;100.00;94272.91;4969430;28;103958;-65
2023/03/10 08:39:43;;;;;;;3.00;2.40;;;;;;;8.74;100.00;94270.91;4969773;28;102173;-65
2023/03/10 08:42:11;;;;;;;2.40;2.20;;;;;;;8.94;100.00;94265.28;4971529;28;102355;-65
2023/03/10 08:44:40;;;;;;;3.67;2.30;;;;;;;9.24;100.00;94256.78;4970686;28;102604;-64
2023/03/10 08:47:07;;;;;;;3.07;2.20;;;;;;;9.50;100.00;94252.59;4971720;28;102252;-64
2023/03/10 08:49:35;;;;;;;4.13;1.93;;;;;;;9.72;100.00;94245.50;4971096;28;102364;-64
2023/03/10 08:52:03;;;;;;;4.33;2.40;;;;;;;9.60;100.00;94247.09;4972751;28;105291;-63
2023/03/10 08:54:39;;;;;;;4.47;2.40;;;;;;;9.70;100.00;94241.59;4969653;28;105778;-63
2023/03/10 08:57:06;;;;;;;5.03;3.13;;;;;;;9.93;100.00;94237.91;4969214;28;105108;-63
2023/03/10 08:59:33;;;;;;;5.93;3.33;;;;;;;9.87;100.00;94242.53;4970937;28;101836;-65
2023/03/10 09:02:00;;;;;;;5.57;3.00;;;;;;;9.95;100.00;94246.34;4972078;28;104680;-65
2023/03/10 09:04:29;;;;;;;5.17;1.93;;;;;;;9.92;100.00;94244.31;4984917;28;106030;-65
2023/03/10 09:06:56;;;;;;;4.30;2.17;;;;;;;10.21;100.00;94244.75;4969621;28;101865;-65
2023/03/10 09:09:24;;;;;;;5.00;2.03;;;;;;;10.31;100.00;94241.88;4965957;28;105642;-64
2023/03/10 09:11:51;;;;;;;3.57;2.13;;;;;;;10.43;100.00;94242.13;4950794;28;102757;-64
2023/03/10 09:14:19;;;;;;;5.87;2.40;;;;;;;10.60;100.00;94256.34;4953656;28;102069;-65
2023/03/10 09:16:46;;;;;;;7.23;2.87;;;;;;;10.50;100.00;94251.25;4949540;28;103722;-63
2023/03/10 09:19:13;;;;;;;3.63;2.50;;;;;;;10.54;100.00;94251.44;4970425;28;102090;-63
2023/03/10 09:21:41;;;;;;;3.50;2.37;;;;;;;10.67;100.00;94245.25;4987646;28;105512;-63
2023/03/10 09:24:09;;;;;;;5.90;2.20;;;;;;;11.12;100.00;94244.16;4989972;28;102629;-63
2023/03/10 09:26:37;;;;;;;2.80;2.27;;;;;;;11.30;100.00;94240.47;4973454;28;102019;-63
2023/03/10 09:29:04;;;;;;;3.30;2.10;;;;;;;11.56;100.00;94236.06;4969164;28;105081;-63
2023/03/10 09:31:34;;;;;;;4.13;2.37;;;;;;;11.69;100.00;94237.84;4968703;28;105934;-63
2023/03/10 09:34:01;;;;;;;4.17;1.80;;;;;;;11.74;100.00;94232.38;4972255;28;101970;-63
2023/03/10 09:36:29;;;;;;;4.50;2.20;;;;;;;11.81;100.00;94219.38;4952107;28;106633;-63
2023/03/10 09:38:57;;;;;;;4.87;2.50;;;;;;;12.00;100.00;94225.22;4969249;28;102057;-63
2023/03/10 09:41:59;;;;;;;5.07;2.50;;;;;;;11.86;100.00;94224.56;4970012;28;104989;-63
2023/03/10 09:44:34;;;;;;;4.17;2.17;;;;;;;11.95;100.00;94215.50;4990076;28;102748;-64
2023/03/10 09:47:16;;;;;;;2.37;1.83;;;;;;;12.04;100.00;94216.31;4980550;28;101908;-64
2023/03/10 09:49:50;;;;;;;3.43;1.83;;;;;;;12.02;100.00;94202.53;4968907;28;105421;-64
2023/03/10 09:52:27;;;;;;;3.53;2.33;;;;;;;12.10;100.00;94200.97;4969905;28;102989;-64
2023/03/10 09:55:04;;;;;;;2.53;1.30;;;;;;;12.21;100.00;94195.00;4969503;28;103316;-64
2023/03/10 09:57:42;;;;;;;1.37;1.27;;;;;;;12.44;100.00;94182.31;4969965;28;105413;-64
2023/03/10 10:00:19;;;;;;;1.70;1.47;;;;;;;12.53;97.93;94181.19;4980999;28;102141;-64
2023/03/10 10:03:03;;;;;;;2.23;1.53;;;;;;;12.77;93.03;94175.38;4958445;28;103040;-64
2023/03/10 10:05:33;;;;;;;1.60;1.50;;;;;;;12.88;80.88;94177.41;4969915;28;103260;-64
2023/03/10 10:08:06;;;;;;;1.83;1.57;;;;;;;13.37;82.90;94168.00;4970211;28;101820;-64
2023/03/10 10:10:37;;;;;;;1.80;1.63;;;;;;;13.84;79.92;94158.78;4968610;28;105636;-64
2023/03/10 10:13:14;;;;;;;3.77;1.80;;;;;;;14.14;72.70;94160.31;4967199;28;105501;-64
2023/03/10 10:15:45;;;;;;;1.90;1.70;;;;;;;14.17;70.47;94159.66;4968957;28;102760;-64
2023/03/10 10:18:14;;;;;;;3.00;1.90;;;;;;;13.90;64.82;94162.84;4965983;28;105148;-64
2023/03/10 10:20:46;;;;;;;2.73;1.80;;;;;;;13.92;65.52;94152.59;4966210;28;103084;-64
2023/03/10 10:23:59;;;;;;;1.80;1.60;;;;;;;13.97;60.84;94155.09;4980963;28;104812;-64
2023/03/10 10:26:27;;;;;;;2.57;1.73;;;;;;;14.20;62.88;94164.38;4987666;28;105471;-64
2023/03/10 10:28:57;;;;;;;1.97;1.77;;;;;;;14.26;61.70;94155.03;4973504;28;101967;-64
2023/03/10 10:31:27;;;;;;;1.60;1.47;;;;;;;14.43;59.67;94161.03;4968359;28;105587;-65
2023/03/10 10:34:07;;;;;;;2.00;1.60;;;;;;;14.42;56.44;94167.50;4964548;28;105924;-63
2023/03/10 10:36:38;;;;;;;3.17;1.50;;;;;;;14.42;55.29;94170.19;4950354;28;101935;-64
2023/03/10 10:39:24;;;;;;;2.13;1.37;;;;;;;14.74;54.64;94174.78;4949065;28;103740;-64
2023/03/10 10:41:51;;;;;;;1.50;1.40;;;;;;;14.37;54.09;94175.72;4973926;28;103355;-64
2023/03/10 10:44:25;;;;;;;1.70;1.30;;;;;;;14.69;55.26;94171.50;4971866;28;101996;-63
2023/03/10 10:46:53;;;;;;;2.53;1.90;;;;;;;14.55;55.13;94177.13;4967786;28;105295;-63
2023/03/10 10:49:23;;;;;;;2.73;2.33;;;;;;;14.32;56.97;94180.47;4968243;28;101971;-63
2023/03/10 10:51:59;;;;;;;2.60;1.27;;;;;;;14.42;57.04;94178.19;4968598;28;104285;-64
2023/03/10 10:55:21;;;;;;;2.23;1.50;;;;;;;14.28;58.23;94184.91;4967498;28;105415;-63
2023/03/10 10:57:55;;;;;;;3.70;1.53;;;;;;;14.21;59.85;94198.00;4969898;28;102161;-63
2023/03/10 11:00:28;;;;;;;1.60;1.50;;;;;;;14.31;61.78;94197.63;4967909;28;105542;-63
2023/03/10 11:03:19;;;;;;;1.53;1.40;;;;;;;14.03;60.89;94204.56;4967009;28;105270;-64
2023/03/10 11:05:46;;;;;;;3.43;1.67;;;;;;;13.97;63.42;94211.19;4969635;28;101735;-66
2023/03/10 11:08:19;;;;;;;3.53;1.50;;;;;;;13.54;66.93;94221.31;4970934;28;105302;-67
2023/03/10 11:10:55;;;;;;;4.07;1.47;;;;;;;13.43;68.82;94220.09;4969246;28;102052;-66
2023/03/10 11:13:29;;;;;;;2.27;1.80;;;;;;;13.38;74.28;94257.63;4968304;28;105604;-67
2023/03/10 11:16:04;;;;;;;2.17;1.20;;;;;;;12.70;100.00;94338.50;4967511;28;105516;-66
2023/03/10 11:18:35;;;;;;;4.73;1.57;;;;;;;11.15;100.00;94392.47;4964572;28;101956;-67
2023/03/10 11:21:11;;;;;;;2.67;1.00;;;;;;;9.64;100.00;94409.91;4963515;28;102826;-65
2023/03/10 11:23:54;;;;;;;0.73;0.57;;;;;;;8.60;100.00;94429.81;4968736;28;103244;-66
2023/03/10 11:26:34;;;;;;;1.07;0.60;;;;;;;8.48;100.00;94402.16;4974118;28;101771;-66
2023/03/10 11:29:08;;;;;;;0.73;0.73;;;;;;;8.51;100.00;94383.06;4971100;28;105301;-66
2023/03/10 11:31:45;;;;;;;1.07;0.80;;;;;;;8.59;100.00;94385.84;4970670;28;105260;-66
2023/03/10 11:34:29;;;;;;;2.20;0.87;;;;;;;8.63;100.00;94365.69;4951403;28;105273;-66
2023/03/10 11:37:05;;;;;;;0.70;0.70;;;;;;;8.81;100.00;94366.72;4979697;28;105641;-66
2023/03/10 11:39:47;;;;;;;1.10;0.67;;;;;;;8.83;100.00;94348.69;4990900;28;102286;-66